createdAt,value
2017-08-08T00:04:07.523Z,97.95
2017-08-08T00:09:05.755Z,99.10
2017-08-08T00:14:01.145Z,99.63
2017-08-08T00:18:58.993Z,99.99
2017-08-08T00:23:57.246Z,99.99
2017-08-08T00:33:59.638Z,99.99
2017-08-08T00:44:10.264Z,99.99
2017-08-08T00:49:12.662Z,99.99
2017-08-08T00:59:12.808Z,99.99
2017-08-08T01:19:35.896Z,99.99
2017-08-08T01:24:34.890Z,99.99
2017-08-08T01:39:40.833Z,99.99
2017-08-08T01:44:41.904Z,99.99
2017-08-08T01:49:39.912Z,99.99
2017-08-08T01:54:37.795Z,99.99
2017-08-08T02:04:41.454Z,99.99
2017-08-08T02:14:44.278Z,99.99
2017-08-08T02:19:44.891Z,99.99
2017-08-08T02:29:47.373Z,99.99
2017-08-08T02:39:51.362Z,99.99
2017-08-08T02:44:52.814Z,99.99
2017-08-08T02:49:52.163Z,99.99
2017-08-08T02:54:51.812Z,99.99
2017-08-08T02:59:53.896Z,99.99
2017-08-08T03:04:53.991Z,99.99
2017-08-08T03:14:52.696Z,99.99
2017-08-08T03:24:56.626Z,99.99
2017-08-08T03:40:04.807Z,99.99
2017-08-08T03:45:05.426Z,99.99
2017-08-08T03:50:04.109Z,99.99
2017-08-08T04:00:06.333Z,99.99
2017-08-08T04:05:03.280Z,99.99
2017-08-08T04:10:01.775Z,99.99
2017-08-08T04:14:57.899Z,99.99
2017-08-08T04:19:55.996Z,99.99
2017-08-08T04:24:52.861Z,99.99
2017-08-08T04:29:50.797Z,99.99
2017-08-08T04:39:54.987Z,99.99
2017-08-08T04:44:51.746Z,99.99
2017-08-08T04:49:50.288Z,99.99
2017-08-08T04:54:47.297Z,99.99
2017-08-08T04:59:43.154Z,99.99
2017-08-08T05:04:40.178Z,99.99
2017-08-08T05:09:35.988Z,99.99
2017-08-08T05:14:33.102Z,99.99
2017-08-08T05:19:29.143Z,99.99
2017-08-08T05:24:27.612Z,99.99
2017-08-08T05:29:24.163Z,99.99
2017-08-08T05:34:20.074Z,99.99
2017-08-08T05:39:17.594Z,99.99
2017-08-08T05:44:14.710Z,99.99
2017-08-08T05:49:10.677Z,99.99
2017-08-08T05:54:08.862Z,99.99
2017-08-08T05:59:05.463Z,99.99
2017-08-08T06:04:02.525Z,99.99
2017-08-08T06:08:58.293Z,99.99
2017-08-08T06:13:55.325Z,99.99
2017-08-08T06:18:51.379Z,99.99
2017-08-08T06:23:47.603Z,99.99
2017-08-08T06:28:45.146Z,99.99
2017-08-08T06:33:43.224Z,99.99
2017-08-08T06:38:40.496Z,99.99
2017-08-08T06:43:38.206Z,99.99
2017-08-08T06:48:34.308Z,99.99
2017-08-08T06:53:30.842Z,99.99
2017-08-08T06:58:28.014Z,99.99
2017-08-08T07:03:25.089Z,99.99
2017-08-08T07:08:24.287Z,99.58
2017-08-08T07:13:20.946Z,99.99
2017-08-08T07:18:18.228Z,98.77
2017-08-08T07:23:14.666Z,97.62
2017-08-08T07:28:10.856Z,99.06
2017-08-08T07:33:08.223Z,98.39
2017-08-08T07:38:05.105Z,97.19
2017-08-08T07:43:01.632Z,96.70
2017-08-08T07:53:00.318Z,97.38
2017-08-08T07:57:56.472Z,96.47
2017-08-08T08:02:56.806Z,96.56
2017-08-08T08:07:53.473Z,95.17
2017-08-08T08:12:50.204Z,93.91
2017-08-08T08:22:49.398Z,94.49
2017-08-08T08:27:46.268Z,94.40
2017-08-08T08:32:43.748Z,95.17
2017-08-08T08:37:40.279Z,96.32
2017-08-08T08:42:39.215Z,96.42
2017-08-08T08:47:36.031Z,95.60
2017-08-08T08:57:36.254Z,96.89
2017-08-08T09:02:32.101Z,96.37
2017-08-08T09:07:30.392Z,96.56
2017-08-08T09:12:30.306Z,96.08
2017-08-08T09:17:28.776Z,95.40
2017-08-08T09:27:28.439Z,95.45
2017-08-08T09:32:33.728Z,94.54
2017-08-08T09:37:32.485Z,96.56
2017-08-08T09:42:30.968Z,94.82
2017-08-08T09:47:27.865Z,94.06
2017-08-08T09:52:28.106Z,93.38
2017-08-08T09:57:25.622Z,95.02
2017-08-08T10:02:23.371Z,94.63
2017-08-08T10:07:22.055Z,95.31
2017-08-08T10:12:17.366Z,95.21
2017-08-08T10:17:13.821Z,95.50
2017-08-08T10:22:11.477Z,96.85
2017-08-08T10:27:07.590Z,96.27
2017-08-08T10:32:03.701Z,96.75
2017-08-08T10:37:01.103Z,97.42
2017-08-08T10:41:59.036Z,96.46
2017-08-08T10:46:54.391Z,96.37
2017-08-08T10:51:51.828Z,96.85
2017-08-08T10:56:49.593Z,97.33
2017-08-08T11:01:46.254Z,97.72
2017-08-08T11:06:43.925Z,98.00
2017-08-08T11:11:39.841Z,96.85
2017-08-08T11:16:37.284Z,97.62
2017-08-08T11:21:34.083Z,97.72
2017-08-08T11:26:31.985Z,99.26
2017-08-08T11:31:28.899Z,98.39
2017-08-08T11:36:25.665Z,99.07
2017-08-08T11:41:22.833Z,97.52
2017-08-08T11:46:19.291Z,97.52
2017-08-08T11:51:16.683Z,97.67
2017-08-08T11:56:13.997Z,98.25
2017-08-08T12:01:11.826Z,99.60
2017-08-08T12:06:11.888Z,99.99
2017-08-08T12:16:09.290Z,99.99
2017-08-08T12:26:11.477Z,99.99
2017-08-08T12:31:10.438Z,99.99
2017-08-08T12:36:06.766Z,99.99
2017-08-08T12:41:03.438Z,99.99
2017-08-08T12:46:01.539Z,99.99
2017-08-08T12:56:00.355Z,99.99
2017-08-08T13:01:00.079Z,99.99
2017-08-08T13:05:55.442Z,99.99
2017-08-08T13:10:51.112Z,99.99
2017-08-08T13:15:47.912Z,99.99
2017-08-08T13:20:44.556Z,99.99
2017-08-08T13:25:40.226Z,99.99
2017-08-08T13:30:36.896Z,99.99
2017-08-08T13:35:32.737Z,99.99
2017-08-08T13:40:29.845Z,99.99
2017-08-08T13:45:27.379Z,99.99
2017-08-08T13:50:23.006Z,99.99
2017-08-08T13:55:20.385Z,99.99
2017-08-08T14:00:16.066Z,99.99
2017-08-08T14:05:13.490Z,99.99
2017-08-08T14:10:10.601Z,99.99
2017-08-08T14:15:07.215Z,99.99
2017-08-08T14:20:02.410Z,99.99
2017-08-08T14:24:58.085Z,99.99
2017-08-08T14:29:55.902Z,99.99
2017-08-08T14:34:51.052Z,99.99
2017-08-08T14:39:46.920Z,99.99
2017-08-08T14:44:44.769Z,99.99
2017-08-08T14:49:42.432Z,99.99
2017-08-08T14:54:39.100Z,99.99
2017-08-08T14:59:35.085Z,99.99
2017-08-08T15:04:31.996Z,99.99
2017-08-08T15:09:29.559Z,99.99
2017-08-08T15:14:24.998Z,99.99
2017-08-08T15:19:21.222Z,99.99
2017-08-08T15:24:17.029Z,99.99
2017-08-08T15:29:13.916Z,99.99
2017-08-08T15:34:11.176Z,99.99
2017-08-08T15:39:09.060Z,99.99
2017-08-08T15:44:05.848Z,99.99
2017-08-08T15:49:02.405Z,99.99
2017-08-08T15:53:58.006Z,99.99
2017-08-08T15:58:55.356Z,99.99
2017-08-08T16:03:51.148Z,99.99
2017-08-08T16:08:48.595Z,99.99
2017-08-08T16:13:43.978Z,99.99
2017-08-08T16:18:40.791Z,99.99
2017-08-08T16:23:37.282Z,99.99
2017-08-08T16:28:35.909Z,99.99
2017-08-08T16:33:32.701Z,99.99
2017-08-08T16:38:28.494Z,99.99
2017-08-08T16:43:25.798Z,99.99
2017-08-08T16:48:27.283Z,99.99
2017-08-08T16:53:25.253Z,99.99
2017-08-08T16:58:23.001Z,99.99
2017-08-08T17:03:19.593Z,99.99
2017-08-08T17:08:16.897Z,99.99
2017-08-08T17:13:14.063Z,99.99
2017-08-08T17:18:12.214Z,99.99
2017-08-08T17:38:21.774Z,99.99
2017-08-08T17:43:19.018Z,99.99
2017-08-08T17:48:14.472Z,99.99
2017-08-08T17:53:10.192Z,99.99
2017-08-08T17:58:07.016Z,99.99
2017-08-08T18:03:02.701Z,99.99
2017-08-08T18:07:59.781Z,99.99
2017-08-08T18:12:55.649Z,99.99
2017-08-08T18:17:51.330Z,99.99
2017-08-08T18:22:47.601Z,99.99
2017-08-08T18:27:45.592Z,99.99
2017-08-08T18:32:40.972Z,99.99
2017-08-08T18:37:37.605Z,99.99
2017-08-08T18:42:33.514Z,99.99
2017-08-08T18:47:29.852Z,99.99
2017-08-08T18:52:26.928Z,99.99
2017-08-08T18:57:22.778Z,99.99
2017-08-08T19:02:19.354Z,99.99
2017-08-08T19:07:15.019Z,99.99
2017-08-08T19:12:15.542Z,99.99
2017-08-08T19:17:13.090Z,99.99
2017-08-08T19:22:12.907Z,99.99
2017-08-08T19:27:11.684Z,99.99
2017-08-08T19:32:09.087Z,99.99
2017-08-08T19:37:07.470Z,99.99
2017-08-08T19:47:12.519Z,99.99
2017-08-08T19:52:09.426Z,99.99
2017-08-08T19:57:11.607Z,99.99
2017-08-08T20:02:09.214Z,99.99
2017-08-08T20:07:05.943Z,99.99
2017-08-08T20:12:01.562Z,99.99
2017-08-08T20:16:57.626Z,99.99
2017-08-08T20:27:02.743Z,99.99
2017-08-08T20:32:00.669Z,99.99
2017-08-08T20:36:57.674Z,99.99
2017-08-08T20:41:57.943Z,99.99
2017-08-08T20:51:58.792Z,99.99
2017-08-08T20:56:54.704Z,99.99
2017-08-08T21:01:51.570Z,99.99
2017-08-08T21:11:51.034Z,99.99
2017-08-08T21:16:51.396Z,99.99
2017-08-08T21:21:50.017Z,99.99
2017-08-08T21:26:46.524Z,99.99
2017-08-08T21:46:59.204Z,99.99
2017-08-08T21:51:55.126Z,99.99
2017-08-08T22:12:12.984Z,99.99
2017-08-08T22:22:17.987Z,99.99
2017-08-08T22:27:14.041Z,99.99
2017-08-08T22:32:10.716Z,99.99
2017-08-08T22:52:19.307Z,99.99
2017-08-08T22:57:18.317Z,99.99
2017-08-08T23:02:18.483Z,99.99
2017-08-08T23:12:24.664Z,99.99
